Time;durP1;ratioP1;P1;durP2;ratioP2;P2;SDS_P1;SDS_P2;PMS_P1;PMS_P2;Temp;Humidity;BMP_temperature;BMP_pressure;BME280_temperature;BME280_humidity;BME280_pressure;Samples;Min_cycle;Max_cycle;Signal;HPM_P1;HPM_P2
2022/08/06 00:01:40;;;;;;;4.65;2.10;;;;;;;27.26;45.19;98625.41;6215790;23;20146;-89
2022/08/06 00:04:06;;;;;;;5.07;2.13;;;;;;;27.27;44.99;98611.75;6215408;23;20173;-89
2022/08/06 00:06:33;;;;;;;6.30;1.92;;;;;;;27.05;45.98;98622.78;6189851;23;20161;-90
2022/08/06 00:08:58;;;;;;;6.65;1.95;;;;;;;26.94;45.81;98626.03;6215362;23;20146;-88
2022/08/06 00:11:24;;;;;;;3.70;1.77;;;;;;;26.83;45.81;98616.66;6210814;23;20149;-90
2022/08/06 00:13:50;;;;;;;3.15;1.63;;;;;;;26.71;46.39;98623.56;6186645;23;20232;-89
2022/08/06 00:16:15;;;;;;;6.30;1.97;;;;;;;26.68;46.44;98613.19;6186652;23;20157;-88
2022/08/06 00:18:41;;;;;;;5.32;1.90;;;;;;;26.70;46.24;98624.59;6186581;23;20673;-89
2022/08/06 00:21:06;;;;;;;3.03;1.70;;;;;;;26.71;46.31;98623.56;6186368;23;20432;-89
2022/08/06 00:23:33;;;;;;;3.17;1.80;;;;;;;26.64;46.67;98628.06;6187227;23;20212;-89
2022/08/06 00:26:00;;;;;;;4.13;2.15;;;;;;;26.58;47.07;98618.91;6214138;23;20146;-89
2022/08/06 00:28:27;;;;;;;3.90;1.67;;;;;;;26.55;46.59;98623.84;6189505;23;20253;-90
2022/08/06 00:30:52;;;;;;;4.67;1.70;;;;;;;26.55;46.45;98630.03;6215617;23;20145;-90
2022/08/06 00:33:19;;;;;;;4.07;1.83;;;;;;;26.50;46.00;98631.66;6214442;23;20164;-90
2022/08/06 00:39:07;;;;;;;4.50;2.57;;;;;;;26.37;46.61;98631.53;6198242;23;20177;-90
2022/08/06 00:45:42;;;;;;;4.10;2.20;;;;;;;26.27;46.78;98618.44;6201942;23;20257;-90
2022/08/06 00:52:17;;;;;;;3.10;1.80;;;;;;;26.00;47.95;98622.66;6203963;23;20655;-90
2022/08/06 01:02:44;;;;;;;2.60;1.60;;;;;;;25.84;48.01;98627.47;6050818;23;20176;-89
2022/08/06 01:09:01;;;;;;;6.73;2.03;;;;;;;25.75;47.53;98631.28;6064556;23;20156;-89
2022/08/06 01:19:28;;;;;;;5.77;2.03;;;;;;;25.63;47.99;98628.22;5905116;24;20233;-89
2022/08/06 01:22:47;;;;;;;4.00;1.83;;;;;;;25.41;48.95;98621.13;5960636;24;20204;-89
2022/08/06 01:25:35;;;;;;;3.60;1.83;;;;;;;25.49;48.45;98615.69;5934256;23;20196;-90
2022/08/06 01:28:51;;;;;;;4.13;2.13;;;;;;;25.41;48.63;98618.44;6015217;23;20251;-89
2022/08/06 01:39:11;;;;;;;6.50;2.30;;;;;;;25.35;48.83;98613.81;5999396;23;20159;-90
2022/08/06 01:41:59;;;;;;;7.97;2.10;;;;;;;25.32;48.74;98615.03;6037248;23;20183;-89
2022/08/06 01:44:53;;;;;;;4.97;2.50;;;;;;;25.24;49.21;98611.59;6096503;23;20191;-90
2022/08/06 02:40:32;;;;;;;;;;;;;;;;;;;;;
2022/08/06 16:42:57;;;;;;;2.40;1.40;;;;;;;36.50;27.41;98290.34;6215758;23;20173;-89
2022/08/06 16:45:24;;;;;;;4.20;1.83;;;;;;;36.44;27.92;98294.94;6215871;23;20166;-89
2022/08/06 16:48:18;;;;;;;5.57;1.70;;;;;;;36.14;28.55;98309.25;6214266;23;20221;-90
2022/08/06 16:50:44;;;;;;;3.13;2.00;;;;;;;35.68;30.03;98302.66;6215639;23;20138;-91
2022/08/06 16:53:10;;;;;;;4.63;1.80;;;;;;;35.35;31.33;98316.56;6189333;23;20478;-89
2022/08/06 16:55:36;;;;;;;3.05;1.75;;;;;;;35.32;31.23;98314.34;6189994;23;20224;-90
2022/08/06 16:58:06;;;;;;;3.50;2.00;;;;;;;35.00;31.98;98327.91;6215508;23;20474;-89
2022/08/06 17:00:34;;;;;;;2.83;1.83;;;;;;;34.78;32.49;98323.56;6203808;23;20177;-90
2022/08/06 17:03:00;;;;;;;4.03;2.13;;;;;;;34.93;32.31;98327.25;6185822;23;20157;-89
2022/08/06 17:05:26;;;;;;;4.07;2.45;;;;;;;35.02;32.00;98341.25;6185687;23;20170;-90
2022/08/06 17:07:52;;;;;;;6.55;2.17;;;;;;;34.94;31.87;98334.38;6185794;23;20219;-90
2022/08/06 17:10:18;;;;;;;4.35;2.00;;;;;;;34.92;32.64;98341.97;6185734;23;20589;-89
2022/08/06 17:12:47;;;;;;;3.22;2.05;;;;;;;34.87;32.65;98344.66;6159508;23;20154;-89
2022/08/06 17:15:16;;;;;;;3.60;2.00;;;;;;;34.99;32.38;98345.31;6185689;23;20146;-90
2022/08/06 17:17:44;;;;;;;4.30;2.50;;;;;;;34.66;32.82;98359.09;6159319;23;20592;-89
2022/08/06 17:20:10;;;;;;;7.03;2.53;;;;;;;34.42;33.93;98357.66;6185675;23;20146;-89
2022/08/06 17:22:37;;;;;;;3.08;2.00;;;;;;;34.06;34.76;98358.22;6159434;23;20517;-90
2022/08/06 17:25:06;;;;;;;4.15;2.08;;;;;;;33.85;34.68;98360.66;6185594;23;20492;-88
2022/08/06 17:27:36;;;;;;;5.20;2.47;;;;;;;33.81;34.69;98367.63;6185271;23;20188;-89
2022/08/06 17:30:02;;;;;;;7.55;3.38;;;;;;;33.75;35.12;98373.25;6185598;23;20147;-88
2022/08/06 17:32:29;;;;;;;5.22;2.40;;;;;;;33.77;35.44;98376.53;6185265;23;20158;-89
2022/08/06 17:34:56;;;;;;;6.18;2.88;;;;;;;33.56;35.52;98369.13;6185594;23;20146;-89
2022/08/06 17:37:22;;;;;;;5.13;2.85;;;;;;;33.54;35.56;98377.50;6185648;23;20157;-88
2022/08/06 17:39:48;;;;;;;11.13;3.38;;;;;;;33.53;35.62;98383.16;6185396;23;20147;-89
2022/08/06 17:42:14;;;;;;;4.53;2.40;;;;;;;33.56;35.39;98380.81;6186010;23;20150;-89
2022/08/06 17:44:41;;;;;;;6.60;2.30;;;;;;;33.58;35.55;98391.44;6159196;23;20497;-88
2022/08/06 17:47:08;;;;;;;6.00;2.13;;;;;;;33.56;35.49;98399.84;6185528;23;20227;-88
2022/08/06 17:49:36;;;;;;;5.60;2.53;;;;;;;33.38;35.98;98398.16;6185585;23;20250;-88
2022/08/06 17:52:04;;;;;;;4.85;2.30;;;;;;;33.53;35.70;98403.03;6185241;23;20158;-88
2022/08/06 17:54:31;;;;;;;4.47;2.22;;;;;;;33.42;36.06;98407.44;6159261;23;20162;-88
2022/08/06 17:56:59;;;;;;;3.92;2.05;;;;;;;33.42;36.14;98415.59;6185536;23;20644;-88
2022/08/06 17:59:24;;;;;;;4.70;2.53;;;;;;;33.39;36.31;98415.25;6186617;23;20154;-88
2022/08/06 18:01:50;;;;;;;4.15;2.28;;;;;;;33.03;36.80;98419.16;6187428;23;20221;-88
2022/08/06 18:04:17;;;;;;;3.72;2.15;;;;;;;33.21;36.64;98410.88;6161326;23;20251;-88
2022/08/06 18:06:42;;;;;;;4.85;2.65;;;;;;;33.27;36.43;98415.34;6187009;23;20216;-89
2022/08/06 18:09:08;;;;;;;6.18;2.83;;;;;;;33.26;36.52;98413.69;6186974;23;20225;-88
2022/08/06 18:11:33;;;;;;;4.70;2.30;;;;;;;33.21;36.56;98415.47;6187255;23;20300;-88
2022/08/06 18:13:59;;;;;;;6.55;2.88;;;;;;;32.92;37.15;98416.47;6186847;23;20157;-88
2022/08/06 18:16:24;;;;;;;4.55;2.58;;;;;;;33.05;37.05;98427.09;6160866;23;20229;-88
2022/08/06 18:18:50;;;;;;;4.38;2.30;;;;;;;32.77;37.25;98439.56;6187128;23;20154;-88
2022/08/06 18:21:18;;;;;;;4.57;2.20;;;;;;;32.89;37.69;98436.78;6186806;23;20590;-88
2022/08/06 18:23:44;;;;;;;5.13;2.65;;;;;;;32.68;37.86;98437.44;6160816;23;20545;-88
2022/08/06 18:26:10;;;;;;;4.25;2.40;;;;;;;32.81;37.42;98443.44;6186655;23;20502;-88
2022/08/06 18:28:36;;;;;;;7.00;2.58;;;;;;;32.90;37.21;98441.16;6187107;23;20150;-88
2022/08/06 18:31:08;;;;;;;5.95;2.55;;;;;;;32.83;37.63;98451.34;6186743;23;20640;-88
2022/08/06 18:33:35;;;;;;;4.65;2.50;;;;;;;32.52;38.24;98452.56;6160633;23;20163;-88
2022/08/06 18:36:01;;;;;;;4.18;2.33;;;;;;;32.46;38.56;98455.38;6186639;23;20167;-89
2022/08/06 18:38:27;;;;;;;4.20;2.22;;;;;;;32.62;38.31;98454.69;6186659;23;20617;-88
2022/08/06 18:40:57;;;;;;;4.32;2.22;;;;;;;32.79;37.50;98463.75;6186450;23;20492;-88
2022/08/06 18:43:23;;;;;;;5.05;2.67;;;;;;;32.75;37.42;98468.00;6187220;23;20157;-88
2022/08/06 18:45:49;;;;;;;4.57;2.28;;;;;;;32.54;37.96;98463.19;6186466;23;20170;-88
2022/08/06 18:48:14;;;;;;;4.38;2.30;;;;;;;32.37;38.82;98481.19;6160445;23;20170;-88
2022/08/06 18:50:40;;;;;;;4.72;2.85;;;;;;;32.31;38.79;98479.44;6186918;23;20637;-88
2022/08/06 18:53:05;;;;;;;4.97;2.20;;;;;;;32.16;39.06;98480.72;6186541;23;20153;-88
2022/08/06 18:55:31;;;;;;;4.18;2.08;;;;;;;32.10;39.43;98483.56;6160405;23;20154;-88
2022/08/06 18:57:57;;;;;;;4.45;2.35;;;;;;;32.22;38.81;98481.69;6161129;23;20170;-89
2022/08/06 19:00:24;;;;;;;5.07;2.85;;;;;;;32.35;38.74;98488.75;6186436;23;20479;-88
2022/08/06 19:02:51;;;;;;;5.68;2.60;;;;;;;32.21;38.84;98488.97;6187072;23;20161;-88
2022/08/06 19:05:17;;;;;;;6.45;2.92;;;;;;;32.15;39.20;98487.19;6186616;23;20237;-89
2022/08/06 19:07:42;;;;;;;5.35;2.78;;;;;;;32.16;39.06;98494.28;6186743;23;20158;-88
2022/08/06 19:10:08;;;;;;;5.05;2.40;;;;;;;32.26;38.83;98488.28;6160701;23;20221;-88
2022/08/06 19:12:36;;;;;;;4.10;2.83;;;;;;;32.25;39.20;98493.94;6186321;23;20154;-90
2022/08/06 19:15:01;;;;;;;6.47;2.67;;;;;;;32.26;39.11;98495.59;6186670;23;20143;-88
2022/08/06 19:17:27;;;;;;;5.47;2.67;;;;;;;32.24;39.06;98495.81;6160291;23;20165;-88
2022/08/06 19:19:52;;;;;;;4.50;2.70;;;;;;;32.13;38.98;98502.88;6186588;23;20150;-88
2022/08/06 19:22:23;;;;;;;4.97;2.78;;;;;;;32.19;39.09;98504.66;6160313;23;20150;-88
2022/08/06 19:24:49;;;;;;;4.03;1.90;;;;;;;32.19;39.15;98503.84;6186535;23;20163;-88
2022/08/06 19:27:15;;;;;;;5.63;2.40;;;;;;;32.20;39.20;98505.50;6160181;23;20252;-88
2022/08/06 19:29:41;;;;;;;4.22;2.08;;;;;;;32.18;39.03;98502.22;6186466;23;20571;-88
2022/08/06 19:32:06;;;;;;;4.53;2.50;;;;;;;32.21;39.02;98502.53;6160092;23;20160;-88
2022/08/06 19:34:32;;;;;;;3.75;2.05;;;;;;;32.20;38.96;98509.03;6186060;23;20147;-88
2022/08/06 19:36:57;;;;;;;4.30;2.42;;;;;;;32.19;38.87;98514.69;6186769;23;20155;-88
2022/08/06 19:39:23;;;;;;;4.35;2.33;;;;;;;32.16;38.81;98515.16;6186053;23;20228;-89
2022/08/06 19:41:50;;;;;;;7.95;2.50;;;;;;;32.10;39.22;98513.41;6185984;23;20578;-88
2022/08/06 19:44:16;;;;;;;4.65;2.20;;;;;;;32.10;39.45;98511.47;6185908;23;20177;-88
2022/08/06 19:46:42;;;;;;;4.03;2.22;;;;;;;32.03;39.22;98510.78;6186361;23;20158;-88
2022/08/06 19:49:07;;;;;;;4.05;2.00;;;;;;;32.00;39.00;98522.06;6186661;23;20155;-88
2022/08/06 19:51:33;;;;;;;5.13;2.20;;;;;;;32.02;39.16;98524.56;6159992;23;20174;-88
2022/08/06 19:54:00;;;;;;;4.57;2.33;;;;;;;31.88;39.40;98517.66;6185966;23;20567;-88
2022/08/06 19:56:29;;;;;;;4.43;2.67;;;;;;;31.88;39.37;98518.50;6185916;23;20146;-88
2022/08/06 19:58:56;;;;;;;5.47;2.47;;;;;;;31.78;39.61;98514.69;6185878;23;20150;-88
2022/08/06 20:01:21;;;;;;;4.13;2.60;;;;;;;31.69;40.12;98519.59;6186178;23;20150;-88
2022/08/06 20:03:47;;;;;;;5.00;2.35;;;;;;;31.63;39.90;98518.63;6185808;23;20597;-88
2022/08/06 20:06:13;;;;;;;4.28;2.20;;;;;;;31.57;40.20;98521.44;6159714;23;20178;-88
2022/08/06 20:08:39;;;;;;;5.07;2.40;;;;;;;31.42;40.39;98529.13;6185858;23;20165;-88
2022/08/06 20:11:10;;;;;;;4.10;1.90;;;;;;;31.37;40.55;98520.84;6186514;23;20165;-89
2022/08/06 20:13:36;;;;;;;5.10;2.85;;;;;;;31.26;40.95;98527.88;6186518;23;20135;-88
2022/08/06 20:16:04;;;;;;;4.43;2.88;;;;;;;31.09;41.13;98526.81;6186422;23;20158;-88
2022/08/06 20:18:30;;;;;;;4.00;2.42;;;;;;;30.90;41.77;98525.97;6185705;23;20229;-88
2022/08/06 20:21:00;;;;;;;3.85;2.47;;;;;;;30.78;42.06;98524.22;6185468;23;20612;-88
2022/08/06 20:23:26;;;;;;;4.45;2.33;;;;;;;30.75;42.31;98517.38;6186032;23;20138;-88
2022/08/06 20:25:54;;;;;;;5.57;2.85;;;;;;;30.73;42.50;98522.19;6185967;23;20166;-88
2022/08/06 20:28:27;;;;;;;6.15;2.78;;;;;;;30.68;42.16;98510.38;6185722;23;20157;-88
2022/08/06 20:30:53;;;;;;;4.75;2.38;;;;;;;30.71;42.16;98526.19;6186373;23;20180;-88
2022/08/06 20:33:20;;;;;;;5.78;2.58;;;;;;;30.71;42.17;98515.34;6159654;23;20151;-88
2022/08/06 20:35:46;;;;;;;7.47;2.22;;;;;;;30.72;42.21;98512.41;6159629;23;20150;-88
2022/08/06 20:38:13;;;;;;;6.18;2.83;;;;;;;30.62;42.25;98509.41;6159641;23;20150;-88
2022/08/06 20:40:39;;;;;;;4.32;2.60;;;;;;;30.59;42.58;98512.56;6185468;23;20193;-88
2022/08/06 20:43:06;;;;;;;5.63;2.40;;;;;;;30.57;42.28;98516.53;6185603;23;20161;-88
2022/08/06 20:45:35;;;;;;;4.07;2.20;;;;;;;30.49;42.63;98512.25;6159436;23;20174;-88
2022/08/06 20:48:00;;;;;;;4.60;2.63;;;;;;;30.42;42.67;98509.56;6159602;23;20173;-88
2022/08/06 20:50:26;;;;;;;4.40;2.60;;;;;;;30.35;42.92;98516.06;6185851;23;20456;-88
2022/08/06 20:52:51;;;;;;;4.75;2.33;;;;;;;30.38;43.31;98521.06;6185545;23;20147;-88
2022/08/06 20:55:17;;;;;;;5.85;2.33;;;;;;;30.33;42.79;98523.59;6185503;23;20146;-88
2022/08/06 20:57:44;;;;;;;5.82;2.28;;;;;;;30.24;43.34;98516.81;6186227;23;20158;-88
2022/08/06 21:00:17;;;;;;;5.80;2.78;;;;;;;30.24;43.24;98519.50;6185483;23;20146;-88
2022/08/06 21:02:44;;;;;;;4.10;2.25;;;;;;;30.20;43.31;98521.00;6185915;23;20153;-88
2022/08/06 21:05:12;;;;;;;5.30;2.28;;;;;;;30.24;43.03;98522.22;6159462;23;20174;-88
2022/08/06 21:07:38;;;;;;;4.15;2.45;;;;;;;30.27;43.12;98519.06;6185452;23;20517;-88
2022/08/06 21:10:04;;;;;;;5.68;2.67;;;;;;;30.24;42.76;98530.34;6160170;23;20158;-88
2022/08/06 21:12:30;;;;;;;6.35;2.90;;;;;;;30.21;43.18;98525.38;6159883;23;20180;-88
2022/08/06 21:14:56;;;;;;;4.10;2.38;;;;;;;30.23;42.79;98515.16;6185420;23;20172;-88
2022/08/06 21:17:21;;;;;;;4.88;2.10;;;;;;;30.23;43.15;98520.56;6186127;23;20159;-88
2022/08/06 21:19:47;;;;;;;4.80;2.25;;;;;;;30.20;43.30;98523.69;6185413;23;20146;-88
2022/08/06 21:22:12;;;;;;;7.05;2.35;;;;;;;30.17;43.20;98521.44;6185422;23;20673;-90
2022/08/06 21:24:38;;;;;;;3.67;2.35;;;;;;;30.12;43.23;98519.38;6159320;23;20182;-91
2022/08/06 21:27:03;;;;;;;6.30;2.97;;;;;;;30.12;43.11;98523.97;6159471;23;20169;-90
2022/08/06 21:29:29;;;;;;;4.30;2.20;;;;;;;30.07;43.39;98521.09;6159401;23;20154;-89
2022/08/06 21:31:55;;;;;;;4.45;2.45;;;;;;;30.01;43.79;98521.97;6185849;23;20178;-90
2022/08/06 21:34:21;;;;;;;5.18;2.38;;;;;;;30.00;43.79;98531.13;6186994;23;20147;-91
2022/08/06 21:36:47;;;;;;;4.88;2.60;;;;;;;30.01;43.53;98532.78;6187821;23;20445;-90
2022/08/06 21:39:12;;;;;;;4.40;2.83;;;;;;;29.96;43.89;98535.31;6187669;23;20468;-90
2022/08/06 21:41:39;;;;;;;6.57;2.40;;;;;;;29.94;43.75;98537.41;6187272;23;20162;-90
2022/08/06 21:44:05;;;;;;;7.85;2.25;;;;;;;29.91;43.78;98535.97;6187605;23;20154;-90
2022/08/06 21:46:30;;;;;;;4.95;2.58;;;;;;;29.87;43.75;98533.94;6161164;23;20508;-90
2022/08/06 21:48:56;;;;;;;7.43;2.67;;;;;;;29.82;43.81;98527.28;6161309;23;20158;-90
2022/08/06 21:51:23;;;;;;;5.82;2.53;;;;;;;29.80;44.12;98542.06;6187472;23;20230;-90
2022/08/06 21:53:59;;;;;;;4.32;2.47;;;;;;;29.72;44.53;98532.31;6187211;23;20151;-90
2022/08/06 21:59:38;;;;;;;4.78;2.58;;;;;;;29.66;44.21;98533.19;6188243;23;20623;-91
2022/08/06 22:02:05;;;;;;;6.68;2.67;;;;;;;29.64;44.50;98534.44;6161966;23;20189;-91
2022/08/06 22:04:58;;;;;;;4.80;2.30;;;;;;;29.61;44.83;98533.00;6161142;23;20179;-91
2022/08/06 22:07:55;;;;;;;6.78;3.15;;;;;;;29.54;44.80;98532.22;6161207;23;20142;-91
2022/08/06 22:10:26;;;;;;;7.00;2.75;;;;;;;29.52;44.98;98528.91;6187867;23;20135;-90
2022/08/06 22:12:52;;;;;;;8.55;3.10;;;;;;;29.47;44.89;98531.44;6161237;23;20143;-91
2022/08/06 22:15:21;;;;;;;4.13;1.98;;;;;;;29.40;45.04;98529.81;6187239;23;20157;-90
2022/08/06 22:17:54;;;;;;;7.22;3.03;;;;;;;29.38;45.35;98531.88;6186978;23;20170;-90
2022/08/06 22:20:20;;;;;;;4.68;2.42;;;;;;;29.34;45.43;98536.91;6187268;23;20151;-90
2022/08/06 22:22:52;;;;;;;5.57;2.47;;;;;;;29.30;45.18;98532.94;6161047;23;20150;-91
2022/08/06 22:25:25;;;;;;;7.60;2.60;;;;;;;29.28;45.60;98529.63;6186877;23;20248;-90
2022/08/06 22:27:52;;;;;;;6.13;2.92;;;;;;;29.27;45.82;98530.69;6187365;23;20145;-90
2022/08/06 22:30:35;;;;;;;5.18;2.88;;;;;;;29.23;45.56;98534.84;6186847;23;20213;-90
2022/08/06 22:33:24;;;;;;;4.72;2.80;;;;;;;29.19;45.49;98533.59;6160988;23;20158;-90
2022/08/06 22:35:55;;;;;;;3.67;2.20;;;;;;;29.21;45.53;98531.53;6161172;23;20150;-90
2022/08/06 22:38:21;;;;;;;5.13;2.40;;;;;;;29.18;45.86;98530.06;6161488;23;20605;-90
2022/08/06 22:41:04;;;;;;;3.67;2.33;;;;;;;29.11;46.05;98528.44;6186977;23;20165;-90
2022/08/06 22:43:39;;;;;;;4.82;2.40;;;;;;;29.10;46.09;98529.47;6160512;23;20187;-91
2022/08/06 22:46:08;;;;;;;5.05;2.80;;;;;;;29.08;45.80;98528.88;6161750;23;20569;-91
2022/08/06 22:48:36;;;;;;;5.40;2.83;;;;;;;29.04;46.14;98528.44;6162226;23;20500;-92
2022/08/06 22:51:06;;;;;;;8.05;2.60;;;;;;;29.03;45.87;98525.97;6161070;23;20154;-90
2022/08/06 22:53:32;;;;;;;5.47;2.90;;;;;;;28.96;46.49;98522.44;6160665;23;20146;-91
2022/08/06 22:56:00;;;;;;;4.72;2.95;;;;;;;28.86;46.82;98525.59;6186635;23;20472;-90
2022/08/06 22:58:28;;;;;;;6.28;3.10;;;;;;;28.82;47.06;98523.56;6161045;23;20174;-91
2022/08/06 23:00:53;;;;;;;4.88;2.47;;;;;;;28.82;47.05;98528.94;6161975;23;20189;-90
2022/08/06 23:03:22;;;;;;;4.93;2.88;;;;;;;28.76;46.89;98521.69;6160725;23;20155;-90
2022/08/06 23:05:48;;;;;;;6.57;3.05;;;;;;;28.74;47.03;98523.78;6160653;23;20206;-91
2022/08/06 23:08:16;;;;;;;5.35;2.70;;;;;;;28.77;47.06;98521.50;6160621;23;20174;-91
2022/08/06 23:10:53;;;;;;;7.32;3.22;;;;;;;28.74;47.43;98521.06;6186803;23;20248;-90
2022/08/06 23:13:21;;;;;;;6.80;2.72;;;;;;;28.75;47.02;98514.66;6161950;23;20152;-90
2022/08/06 23:15:47;;;;;;;5.18;3.10;;;;;;;28.68;47.11;98516.50;6160782;23;20157;-90
2022/08/06 23:18:24;;;;;;;7.05;2.70;;;;;;;28.63;47.58;98518.00;6160529;23;20237;-91
2022/08/06 23:20:50;;;;;;;4.07;2.47;;;;;;;28.67;47.43;98514.88;6187175;23;20134;-91
2022/08/06 23:23:20;;;;;;;4.80;2.60;;;;;;;28.65;47.67;98512.38;6161104;23;20249;-91
2022/08/06 23:25:51;;;;;;;4.72;2.50;;;;;;;28.67;47.51;98521.06;6160281;23;20175;-91
2022/08/06 23:28:24;;;;;;;4.45;2.92;;;;;;;28.61;47.97;98521.91;6160486;23;20233;-90
2022/08/06 23:30:52;;;;;;;7.20;2.45;;;;;;;28.59;47.75;98516.69;6161270;23;20589;-91
2022/08/06 23:33:20;;;;;;;5.60;2.60;;;;;;;28.60;47.75;98521.06;6160741;23;20164;-91
2022/08/06 23:35:49;;;;;;;4.65;2.50;;;;;;;28.57;47.72;98513.41;6186891;23;20174;-90
2022/08/06 23:38:20;;;;;;;4.78;2.50;;;;;;;28.54;48.13;98511.13;6161677;23;20253;-90
2022/08/06 23:41:31;;;;;;;6.78;3.00;;;;;;;28.50;48.15;98522.53;6160471;23;20174;-90
2022/08/06 23:44:51;;;;;;;5.28;2.67;;;;;;;28.51;48.22;98514.22;6160511;23;20223;-90
2022/08/06 23:48:10;;;;;;;;;;;;;;;;;;;;;
2022/08/06 23:51:29;;;;;;;;;;;;;;;;;;;;;
2022/08/06 23:54:02;;;;;;;5.93;2.60;;;;;;;28.42;48.91;98518.19;6169246;23;20233;-90
2022/08/06 23:57:10;;;;;;;;;;;;;;;;;;;;;
2022/08/06 23:59:35;;;;;;;5.05;2.80;;;;;;;28.46;48.80;98519.41;6186846;23;20229;-89
